Airfield :
LOGIN :

Register | Disclaimer

   EN    FR    IT 

 










Legend :    VFR   Marginal VFR   IFR   Intensive IFR   Very Intensive IFR
Visi :
Ceiling :
>= 8 km
>= 3000ft
5 to 8 km
1000 to 3000 ft
1500m to 5 km
500 to 1000 ft
800 to 1500m
200 to 500 ft
< 800m
< 200 ft
Symbols :   Thunderstorms  Fog  Heavy snow  Heavy precipitations  Wind > 20 kt
SIGMETs :     Misc.  Thunderstorms  Icing  Turbulence  Mountain Waves  Volcanic Ashes







- Airport Elevation : 423 ft
- IATA code : PIS
- Download approach charts


LFBI - Poitiers

CURRENT METAR :
  • 161500Z AUTO 26016KT 9999 FEW016 BKN029 BKN056 11/09 Q1009 TEMPO 27020G30KT 1500 RA BKN006

EXPIRED METARs :
  • 161430Z AUTO 27014KT 230V300 9999 -RADZ BKN016 OVC021 11/10 Q1010 TEMPO 27020G30KT 1500 RA BKN006
  • 161400Z AUTO 25017KT 9999 BKN018 BKN024 OVC052 12/10 Q1010 TEMPO 27020G30KT 1500 RA BKN006
  • 161330Z AUTO 25017KT 9999 BKN025 BKN035 BKN045 12/10 Q1010 TEMPO 27020G30KT 1500 RA BKN006
  • 161300Z AUTO 25016KT 9999 SCT018 BKN025 BKN060 12/10 Q1010 TEMPO 27020G30KT 1500 RA BKN006
  • 161230Z AUTO 25012KT 9999 FEW015 SCT020 BKN054 12/11 Q1011 TEMPO 27020G30KT 1500 RA BKN006

TAF TAF LFBI
Valid from the 16 at 12:00 until the 17 at 12:00 UTC


161100Z 1612/1712 27015KT 9999 OVC020
TEMPO 1612/1712 27020G30KT
TEMPO 1612/1702 3000 -RA BKN012
PROB40
TEMPO 1612/1618 1500 RA BKN006
No reported NOTAMs for that airfield.
2 SIGMETs reported for the Bordeaux FIR (LFBB) :
 
Severe turbulence
LFBB SIGMET 5 VALID 161600/162000 LFPW
LFBB BORDEAUX FIR/UIR SEV TURB FCST WI N4600 E00300 - N4215 E00230 - N4245 W00015 - N4330 E00200 - N4600 E00230 - N4600 E00300 SFC/FL100 STNR NC=
Severe turbulence
LFBB SIGMET 4 VALID 161200/161600 LFPW
LFBB BORDEAUX FIR/UIR SEV TURB FCST WI N4600 E00300 - N4215 E00230 - N4245 E00015 - N4330 E00200 - N4600 E00230 - N4600 E00300 SFC/FL100 STNR NC=



MET'MAP, your aeronautical weather chart ! - Copyright ORBIFLY December 2007 - Disclaimer

ORBIFLY MET'MAP TEAM :

Programming & Development : Alexandra Zaïnal
Concept & Development : Baudouin d'Aumeries
Co-Development & Prog : Marc-Olivier Méhu
Technical & hardware support : Manuel Goepfert

Contact : metmap@orbifly.com




SOURCES & CREDITS :

   NOAA